createdAt,value
2018-06-22T00:00:17.386Z,12.56
2018-06-22T00:02:46.490Z,12.54
2018-06-22T00:05:15.570Z,12.45
2018-06-22T00:07:44.722Z,12.44
2018-06-22T00:10:13.814Z,12.38
2018-06-22T00:12:43.019Z,12.42
2018-06-22T00:15:12.195Z,12.43
2018-06-22T00:17:41.341Z,12.47
2018-06-22T00:20:10.521Z,12.48
2018-06-22T00:22:39.818Z,12.50
2018-06-22T00:25:08.956Z,12.43
2018-06-22T00:27:38.052Z,12.49
2018-06-22T00:30:07.157Z,12.59
2018-06-22T00:32:36.271Z,12.52
2018-06-22T00:35:05.893Z,12.47
2018-06-22T00:37:35.007Z,12.49
2018-06-22T00:40:04.244Z,12.57
2018-06-22T00:42:33.385Z,12.65
2018-06-22T00:45:02.740Z,12.67
2018-06-22T00:47:31.838Z,12.68
2018-06-22T00:50:00.961Z,12.69
2018-06-22T00:52:30.161Z,12.67
2018-06-22T00:54:59.317Z,12.64
2018-06-22T00:57:28.401Z,12.57
2018-06-22T00:59:57.519Z,12.56
2018-06-22T01:02:26.671Z,12.49
2018-06-22T01:04:55.808Z,12.52
2018-06-22T01:07:24.965Z,12.48
2018-06-22T01:09:54.061Z,12.42
2018-06-22T01:12:23.304Z,12.46
2018-06-22T01:14:52.468Z,12.40
2018-06-22T01:17:21.664Z,12.42
2018-06-22T01:19:50.790Z,12.35
2018-06-22T01:22:20.244Z,12.33
2018-06-22T01:24:49.390Z,12.30
2018-06-22T01:27:18.581Z,12.39
2018-06-22T01:29:47.720Z,12.38
2018-06-22T01:32:16.873Z,12.31
2018-06-22T01:34:46.800Z,12.32
2018-06-22T01:37:15.969Z,12.26
2018-06-22T01:39:45.095Z,12.18
2018-06-22T01:42:14.203Z,12.17
2018-06-22T01:44:43.317Z,12.23
2018-06-22T01:47:12.447Z,12.24
2018-06-22T01:49:41.511Z,12.22
2018-06-22T01:52:10.616Z,12.17
2018-06-22T01:54:39.826Z,12.21
2018-06-22T01:57:08.923Z,12.22
2018-06-22T01:59:38.028Z,12.32
2018-06-22T02:02:07.150Z,12.33
2018-06-22T02:04:36.298Z,12.33
2018-06-22T02:07:05.779Z,12.32
2018-06-22T02:09:34.898Z,12.35
2018-06-22T02:12:04.080Z,12.35
2018-06-22T02:14:33.174Z,12.36
2018-06-22T02:17:02.340Z,12.38
2018-06-22T02:19:31.464Z,12.38
2018-06-22T02:22:00.575Z,12.41
2018-06-22T02:24:29.738Z,12.41
2018-06-22T02:26:59.174Z,12.52
2018-06-22T02:29:28.472Z,12.45
2018-06-22T02:31:57.620Z,12.52
2018-06-22T02:34:26.900Z,12.37
2018-06-22T02:36:56.026Z,12.32
2018-06-22T02:39:25.152Z,12.27
2018-06-22T02:41:54.267Z,12.24
2018-06-22T02:44:23.463Z,12.23
2018-06-22T02:46:52.576Z,12.18
2018-06-22T02:49:21.752Z,12.17
2018-06-22T02:51:50.867Z,12.14
2018-06-22T02:54:19.996Z,12.14
2018-06-22T02:56:49.088Z,12.11
2018-06-22T02:59:18.232Z,12.06
2018-06-22T03:01:47.393Z,12.04
2018-06-22T03:04:16.555Z,12.06
2018-06-22T03:06:46.070Z,12.06
2018-06-22T03:09:15.934Z,12.16
2018-06-22T03:11:45.099Z,12.10
2018-06-22T03:14:14.201Z,12.08
2018-06-22T03:16:43.372Z,12.12
2018-06-22T03:19:12.494Z,12.08
2018-06-22T03:21:41.619Z,12.11
2018-06-22T03:24:10.766Z,12.11
2018-06-22T03:26:39.963Z,12.16
2018-06-22T03:29:09.049Z,12.24
2018-06-22T03:31:38.167Z,12.29
2018-06-22T03:34:07.350Z,12.30
2018-06-22T03:36:36.490Z,12.37
2018-06-22T03:39:07.547Z,12.44
2018-06-22T03:41:36.745Z,12.44
2018-06-22T03:44:05.885Z,12.44
2018-06-22T03:46:35.403Z,12.43
2018-06-22T03:49:04.537Z,12.41
2018-06-22T03:51:33.645Z,12.41
2018-06-22T03:54:03.166Z,12.41
2018-06-22T03:56:32.243Z,12.45
2018-06-22T03:59:01.394Z,12.40
2018-06-22T04:01:30.532Z,12.46
2018-06-22T04:03:59.681Z,12.44
2018-06-22T04:06:29.009Z,12.44
2018-06-22T04:08:58.123Z,12.38
2018-06-22T04:11:27.284Z,12.45
2018-06-22T04:13:56.492Z,12.45
2018-06-22T04:16:25.570Z,12.37
2018-06-22T04:18:54.771Z,12.41
2018-06-22T04:21:23.921Z,12.46
2018-06-22T04:23:53.036Z,12.41
2018-06-22T04:26:22.142Z,12.49
2018-06-22T04:28:51.328Z,12.58
2018-06-22T04:31:21.860Z,12.54
2018-06-22T04:33:51.360Z,12.59
2018-06-22T04:36:20.560Z,12.64
2018-06-22T04:38:49.709Z,12.66
2018-06-22T04:41:18.898Z,12.65
2018-06-22T04:43:48.022Z,12.64
2018-06-22T04:46:17.110Z,12.70
2018-06-22T04:48:46.392Z,12.79
2018-06-22T04:51:15.527Z,12.85
2018-06-22T04:53:44.737Z,12.90
2018-06-22T04:56:13.871Z,12.86
2018-06-22T04:58:43.554Z,12.89
2018-06-22T05:01:12.683Z,12.76
2018-06-22T05:03:41.809Z,12.69
2018-06-22T05:06:11.144Z,12.77
2018-06-22T05:08:40.268Z,12.72
2018-06-22T05:11:09.424Z,12.80
2018-06-22T05:13:38.511Z,12.76
2018-06-22T05:16:07.587Z,12.77
2018-06-22T05:18:36.764Z,12.75
2018-06-22T05:21:06.371Z,12.81
2018-06-22T05:23:35.520Z,12.76
2018-06-22T05:26:05.067Z,12.77
2018-06-22T05:28:34.277Z,12.80
2018-06-22T05:31:03.609Z,12.84
2018-06-22T05:33:39.112Z,12.88
2018-06-22T05:36:08.232Z,12.93
2018-06-22T05:38:37.488Z,13.06
2018-06-22T05:41:06.871Z,13.06
2018-06-22T05:43:36.123Z,13.10
2018-06-22T05:46:05.729Z,13.10
2018-06-22T05:48:34.933Z,13.16
2018-06-22T05:51:04.115Z,13.30
2018-06-22T05:53:33.230Z,13.39
2018-06-22T05:56:02.344Z,13.40
2018-06-22T05:58:31.482Z,13.44
2018-06-22T06:01:00.655Z,13.48
2018-06-22T06:03:29.888Z,13.47
2018-06-22T06:05:59.477Z,13.50
2018-06-22T06:08:28.671Z,13.53
2018-06-22T06:11:14.477Z,13.48
2018-06-22T06:13:45.769Z,13.53
2018-06-22T06:16:14.968Z,13.70
2018-06-22T06:18:44.119Z,13.74
2018-06-22T06:21:13.272Z,13.83
2018-06-22T06:23:42.443Z,13.99
2018-06-22T06:26:11.870Z,14.10
2018-06-22T06:28:41.059Z,14.23
2018-06-22T06:31:10.939Z,14.13
2018-06-22T06:33:40.159Z,14.07
2018-06-22T06:36:09.309Z,14.12
2018-06-22T06:38:38.580Z,14.11
2018-06-22T06:41:07.809Z,14.11
2018-06-22T06:43:36.957Z,14.07
2018-06-22T06:46:06.084Z,14.09
2018-06-22T06:48:35.252Z,14.06
2018-06-22T13:52:20.335Z,19.56
2018-06-22T13:54:49.479Z,18.99
2018-06-22T13:57:18.631Z,19.14
2018-06-22T13:59:47.793Z,19.61
2018-06-22T14:02:16.970Z,19.52
2018-06-22T14:04:51.452Z,20.05
2018-06-22T14:07:20.608Z,20.34
2018-06-22T14:09:49.787Z,20.40
2018-06-22T14:12:18.941Z,20.48
2018-06-22T14:14:48.079Z,20.56
2018-06-22T14:17:17.314Z,20.51
2018-06-22T14:19:46.478Z,20.38
2018-06-22T14:22:15.744Z,20.42
2018-06-22T14:24:44.868Z,20.81
2018-06-22T14:27:14.037Z,21.24
2018-06-22T14:29:43.206Z,21.65
2018-06-22T14:32:12.418Z,21.61
2018-06-22T14:34:41.583Z,21.43
2018-06-22T14:37:10.826Z,21.06
2018-06-22T14:39:40.062Z,21.17
2018-06-22T14:42:09.139Z,21.53
2018-06-22T14:44:38.303Z,21.41
2018-06-22T14:47:07.433Z,22.06
2018-06-22T14:49:36.604Z,22.30
2018-06-22T14:52:05.853Z,21.80
2018-06-22T14:54:40.221Z,21.43
2018-06-22T14:57:14.551Z,20.83
2018-06-22T14:59:49.102Z,20.66
2018-06-22T15:02:23.609Z,20.52
2018-06-22T15:04:57.906Z,20.28
2018-06-22T15:07:32.234Z,20.79
2018-06-22T15:10:01.497Z,21.16
2018-06-22T15:12:30.637Z,21.73
2018-06-22T15:14:59.744Z,21.35
2018-06-22T15:17:28.982Z,20.91
2018-06-22T15:19:58.123Z,21.17
2018-06-22T15:22:27.276Z,21.30
2018-06-22T15:24:56.437Z,21.30
2018-06-22T15:27:25.593Z,21.59
2018-06-22T15:29:54.699Z,22.01
2018-06-22T15:32:23.968Z,22.29
2018-06-22T15:34:58.383Z,21.98
2018-06-22T15:37:32.800Z,21.81
2018-06-22T15:40:07.192Z,21.48
2018-06-22T15:42:41.540Z,21.42
2018-06-22T15:45:15.826Z,20.69
2018-06-22T15:48:49.746Z,20.32
2018-06-22T15:51:24.605Z,19.99
2018-06-22T15:53:59.057Z,19.88
2018-06-22T15:56:28.389Z,19.68
2018-06-22T15:58:57.621Z,19.49
2018-06-22T16:01:27.346Z,19.21
2018-06-22T16:03:57.934Z,18.90
2018-06-22T16:06:29.470Z,18.94
2018-06-22T16:08:59.624Z,18.95
2018-06-22T16:11:29.847Z,18.95
2018-06-22T16:14:04.355Z,18.94
2018-06-22T16:16:39.648Z,18.95
2018-06-22T16:19:14.006Z,18.93
2018-06-22T16:21:48.379Z,18.75
2018-06-22T16:24:22.812Z,18.66
2018-06-22T16:26:57.338Z,18.83
2018-06-22T16:29:26.553Z,18.69
2018-06-22T16:31:55.663Z,18.66
2018-06-22T16:34:24.806Z,18.79
2018-06-22T16:36:53.925Z,18.83
2018-06-22T16:39:23.084Z,18.64
2018-06-22T16:41:52.249Z,18.60
2018-06-22T16:44:21.459Z,18.53
2018-06-22T16:46:50.578Z,18.32
2018-06-22T16:49:19.739Z,18.16
2018-06-22T16:51:48.982Z,18.11
2018-06-22T16:54:18.026Z,18.11
2018-06-22T16:56:47.169Z,18.11
2018-06-22T16:59:16.350Z,18.12
2018-06-22T17:01:45.519Z,18.16
2018-06-22T17:04:16.120Z,18.15
2018-06-22T17:06:50.603Z,18.14
2018-06-22T17:09:25.009Z,18.11
2018-06-22T17:11:59.494Z,18.00
2018-06-22T17:14:33.969Z,17.87
2018-06-22T17:17:08.299Z,17.77
2018-06-22T17:19:37.394Z,17.67
2018-06-22T17:22:06.718Z,17.69
2018-06-22T17:24:35.843Z,17.73
2018-06-22T17:27:05.456Z,17.72
2018-06-22T17:29:34.616Z,17.67
2018-06-22T17:32:03.847Z,17.69
2018-06-22T17:34:33.045Z,17.67
2018-06-22T17:37:02.242Z,17.68
2018-06-22T17:39:31.473Z,17.72
2018-06-22T17:42:00.635Z,17.69
2018-06-22T17:44:29.846Z,17.69
2018-06-22T17:46:58.982Z,17.68
2018-06-22T17:49:28.253Z,17.70
2018-06-22T17:51:57.420Z,17.52
2018-06-22T17:54:26.624Z,17.49
2018-06-22T17:56:55.829Z,17.41
2018-06-22T17:59:30.398Z,17.39
2018-06-22T18:02:04.790Z,17.33
2018-06-22T18:04:40.630Z,17.25
2018-06-22T18:07:15.171Z,17.15
2018-06-22T18:09:49.420Z,17.10
2018-06-22T18:12:23.870Z,16.96
2018-06-22T18:14:53.054Z,16.91
2018-06-22T18:17:22.284Z,16.88
2018-06-22T18:19:51.782Z,16.68
2018-06-22T18:22:20.903Z,16.80
2018-06-22T18:24:50.180Z,16.70
2018-06-22T18:27:19.380Z,16.70
2018-06-22T18:29:48.567Z,16.65
2018-06-22T18:32:17.742Z,16.66
2018-06-22T18:34:46.998Z,16.62
2018-06-22T18:37:16.192Z,16.60
2018-06-22T18:39:45.373Z,16.58
2018-06-22T18:42:14.494Z,16.55
2018-06-22T18:44:43.655Z,16.60
2018-06-22T18:47:12.887Z,16.60
2018-06-22T18:49:42.256Z,16.53
2018-06-22T18:52:16.783Z,16.51
2018-06-22T18:54:51.322Z,16.50
2018-06-22T18:57:25.714Z,16.51
2018-06-22T19:00:57.592Z,16.51
2018-06-22T19:03:32.012Z,16.48
2018-06-22T19:06:01.227Z,16.39
2018-06-22T19:08:30.411Z,16.37
2018-06-22T19:10:59.575Z,16.40
2018-06-22T19:13:28.769Z,16.40
2018-06-22T19:15:58.034Z,16.38
2018-06-22T19:18:27.216Z,16.36
2018-06-22T19:20:56.394Z,16.29
2018-06-22T19:23:25.593Z,16.24
2018-06-22T19:25:54.891Z,16.21
2018-06-22T19:28:24.196Z,16.14
2018-06-22T19:30:53.443Z,16.16
2018-06-22T19:33:22.634Z,16.08
2018-06-22T19:35:52.379Z,16.10
2018-06-22T19:38:21.574Z,16.03
2018-06-22T19:40:50.741Z,15.96
2018-06-22T19:43:25.285Z,15.95
2018-06-22T19:45:59.651Z,15.84
2018-06-22T19:48:33.974Z,15.81
2018-06-22T19:51:08.579Z,15.81
2018-06-22T19:53:43.063Z,15.68
2018-06-22T19:56:12.262Z,15.68
2018-06-22T19:58:41.506Z,15.69
2018-06-22T20:01:10.690Z,15.65
2018-06-22T20:03:39.990Z,15.62
2018-06-22T20:06:10.548Z,15.60
2018-06-22T20:08:39.724Z,15.52
2018-06-22T20:11:09.762Z,15.51
2018-06-22T20:13:38.957Z,15.49
2018-06-22T20:16:08.184Z,15.45
2018-06-22T20:18:37.330Z,15.47
2018-06-22T20:21:07.763Z,15.39
2018-06-22T20:23:37.068Z,15.46
2018-06-22T20:26:06.420Z,15.45
2018-06-22T20:28:35.571Z,15.43
2018-06-22T20:31:05.159Z,15.44
2018-06-22T20:33:34.397Z,15.37
2018-06-22T20:36:08.924Z,15.39
2018-06-22T20:38:43.201Z,15.30
2018-06-22T20:41:20.393Z,15.37
2018-06-22T20:43:54.704Z,15.32
2018-06-22T20:46:29.341Z,15.33
2018-06-22T20:49:03.869Z,15.38
2018-06-22T20:51:39.597Z,15.38
2018-06-22T20:54:08.700Z,15.32
2018-06-22T20:56:37.857Z,15.24
2018-06-22T20:59:07.050Z,15.23
2018-06-22T21:01:37.336Z,15.25
2018-06-22T21:04:06.824Z,15.17
2018-06-22T21:06:36.006Z,15.14
2018-06-22T21:09:07.337Z,15.09
2018-06-22T21:11:36.578Z,15.10
2018-06-22T21:14:05.736Z,15.03
2018-06-22T21:16:35.445Z,14.97
2018-06-22T21:19:04.619Z,14.93
2018-06-22T21:21:38.990Z,14.98
2018-06-22T21:24:08.157Z,14.90
2018-06-22T21:26:37.301Z,14.86
2018-06-22T21:29:11.565Z,14.83
2018-06-22T21:31:45.799Z,14.82
2018-06-22T21:34:20.028Z,14.80
2018-06-22T21:36:54.597Z,14.73
2018-06-22T21:39:24.022Z,14.69
2018-06-22T21:41:53.138Z,14.69
2018-06-22T21:44:22.266Z,14.59
2018-06-22T21:46:51.425Z,14.57
2018-06-22T21:49:20.612Z,14.48
2018-06-22T21:51:49.849Z,14.54
2018-06-22T21:54:18.965Z,14.48
2018-06-22T21:56:48.240Z,14.55
2018-06-22T21:59:17.365Z,14.39
2018-06-22T22:01:46.552Z,14.32
2018-06-22T22:04:15.720Z,14.35
2018-06-22T22:06:44.866Z,14.30
2018-06-22T22:09:13.991Z,14.26
2018-06-22T22:11:48.265Z,14.23
2018-06-22T22:14:17.377Z,14.16
2018-06-22T22:16:46.515Z,14.15
2018-06-22T22:19:15.639Z,14.16
2018-06-22T22:21:44.805Z,14.18
2018-06-22T22:24:14.091Z,14.21
2018-06-22T22:26:43.205Z,14.13
2018-06-22T22:29:12.493Z,14.09
2018-06-22T22:31:41.610Z,14.12
2018-06-22T22:34:10.710Z,14.14
2018-06-22T22:36:39.905Z,14.17
2018-06-22T22:39:09.035Z,14.15
2018-06-22T22:41:38.443Z,14.10
2018-06-22T22:44:07.956Z,14.05
2018-06-22T22:46:37.331Z,14.07
2018-06-22T22:49:06.447Z,14.05
2018-06-22T22:51:35.601Z,14.06
2018-06-22T22:54:04.739Z,14.07
2018-06-22T22:56:33.835Z,14.09
2018-06-22T22:59:02.965Z,14.05
2018-06-22T23:01:32.107Z,14.01
2018-06-22T23:04:01.221Z,14.04
2018-06-22T23:06:30.328Z,13.96
2018-06-22T23:08:59.457Z,13.90
2018-06-22T23:11:28.597Z,13.91
2018-06-22T23:13:57.830Z,13.91
2018-06-22T23:16:26.989Z,13.96
2018-06-22T23:18:56.184Z,13.86
2018-06-22T23:21:25.274Z,13.82
2018-06-22T23:23:54.504Z,13.82
2018-06-22T23:26:23.736Z,13.84
2018-06-22T23:28:52.837Z,13.83
2018-06-22T23:31:21.972Z,13.82
2018-06-22T23:33:51.106Z,13.77
2018-06-22T23:36:20.210Z,13.76
2018-06-22T23:38:49.372Z,13.77
2018-06-22T23:41:18.519Z,13.77
2018-06-22T23:43:47.634Z,13.63
2018-06-22T23:46:16.822Z,13.66
2018-06-22T23:48:45.971Z,13.68
2018-06-22T23:51:15.081Z,13.68
2018-06-22T23:53:44.215Z,13.69
2018-06-22T23:56:13.360Z,13.70
2018-06-22T23:58:42.516Z,13.75
